Архив погоды в Гунибе

Метеограмма Гуниб
Среда, 15 Августа
Время местн. Темп Ветер Видим Явления Облачность нижн/средн/верх Атм. давл. Влжн Точка росы ВНГО R Сост. почвы Tg s
Напр Скр Прв ур.ст ур.м изм
00:00 +13.8° З,С-З 1 - 10 км - преимущественно облачно 647 639 -0.4 71% +8.6° 1 км - - - -
Вторник, 14 Августа
Время местн. Темп Ветер Видим Явления Облачность нижн/средн/верх Атм. давл. Влжн Точка росы ВНГО R Сост. почвы Tg s
Напр Скр Прв ур.ст ур.м изм
21:00 +15.3° З,С-З 2 - 10 км - преимущественно облачно 647 640 +0.8 74% +10.7° 1 км - - - -
18:00 +16.2° штиль 0 - 50 км - облачно 647 639 +0.5 71% +10.9° 1 км - - - -
15:00 +17.9° В,Ю-В 1 - 20 км - облачно 646 639 -0.1 55% +8.7° 1 км - - - -
12:00 +18.6° Ю 1 - 50 км - преимущественно облачно 646 639 -0.2 59% +10.4° 1 км - - - -
09:00 +16.4° В 1 - 50 км - переменная облачность 646 639 +0.1 73% +11.5° 1 км - - - -
06:00 +12.7° штиль 0 - 20 км - преимущественно облачно 646 639 +0.5 91% +11.3° 1 км - Влажная (без луж) - -
03:00 +12.3° штиль 0 - 10 км - облачно 646 638 -0.2 94% +11.4° 1 км - - - -
00:00 +13.1° Ю-З 1 - 10 км - облачно 646 638 0 90% +11.5° 1 км - - - -
Понедельник, 13 Августа
Время местн. Темп Ветер Видим Явления Облачность нижн/средн/верх Атм. давл. Влжн Точка росы ВНГО R Сост. почвы Tg s
Напр Скр Прв ур.ст ур.м изм
21:00 +14.2° З 1 - 10 км - облачно 646 638 +1.2 81% +11° 1 км - - - -
18:00 +14.8° З 2 - 20 км - облачно 645 637 +0.5 81% +11.6° 1 км - - - -
15:00 +16° З 5 - 20 км - облачно 644 637 +0.1 77% +12° 1 км - - - -
12:00 +18.3° С-В 1 - 20 км - преимущественно облачно 644 637 -0.4 64% +11.3° 1 км - - - -
09:00 +16.3° штиль 0 - 20 км - облачно 645 637 +0.2 82% +13.2° 1 км - - - -
06:00 +13° штиль 0 - 20 км - облачно 644 637 +0.2 100% +13° 1 км - Влажная (без луж) - -
03:00 +13.4° С 2 - 10 км - облачно 644 637 -0.3 86% +11.1° 1 км - - - -
00:00 +13.2° С 2 - 10 км - облачно 644 637 -0.2 89% +11.5° 1 км - - - -
Воскресенье, 12 Августа
Время местн. Темп Ветер Видим Явления Облачность нижн/средн/верх Атм. давл. Влжн Точка росы ВНГО R Сост. почвы Tg s
Напр Скр Прв ур.ст ур.м изм
21:00 +13.2° З,С-З 2 - 10 км - облачно 645 637 +0.8 97% +12.7° 1 км - - - -
18:00 +13.3° штиль 0 - 20 км - облачно 644 636 +0.5 100% +13.3° 1 км - - - -
15:00 +16° Ю-З 2 - 50 км - облачно 643 636 +0.3 79% +12.3° 1 км - - - -
12:00 +19° З 3 - 50 км - переменная облачность 643 636 -1.2 66% +12.5° 1 км - - - -
09:00 +16.6° В,Ю-В 1 - 50 км - переменная облачность 644 637 -0.4 73% +11.7° 1 км - - - -
06:00 +11.8° С-З 1 - 20 км - преимущественно облачно 646 638 -0.4 88% +9.9° 1 км - Влажная (без луж) - -
03:00 +11.4° Ю 1 - 10 км - облачно 646 638 -1 100% +11.4° 1 км - - - -
00:00 +11.5° штиль 0 - 10 км - облачно 647 639 -1.1 100% +11.5° 1 км - - - -
Суббота, 11 Августа
Время местн. Темп Ветер Видим Явления Облачность нижн/средн/верх Атм. давл. Влжн Точка росы ВНГО R Сост. почвы Tg s
Напр Скр Прв ур.ст ур.м изм
21:00 +11.5° З,С-З 1 - 10 км - облачно 648 640 +0.3 94% +10.5° 1 км - - - -